createdAt,value
2019-04-29T00:01:03.126Z,7.77
2019-04-29T00:04:08.279Z,6.80
2019-04-29T00:07:13.753Z,7.10
2019-04-29T00:10:20.401Z,7.00
2019-04-29T00:13:25.473Z,8.43
2019-04-29T00:16:49.618Z,7.23
2019-04-29T00:20:12.673Z,7.50
2019-04-29T00:23:17.845Z,8.33
2019-04-29T00:26:22.922Z,7.00
2019-04-29T00:29:28.007Z,8.47
2019-04-29T00:32:33.011Z,8.23
2019-04-29T00:35:38.311Z,6.40
2019-04-29T00:39:18.098Z,7.30
2019-04-29T00:42:32.136Z,11.53
2019-04-29T00:45:37.135Z,5.90
2019-04-29T00:48:42.186Z,7.33
2019-04-29T00:51:47.358Z,7.57
2019-04-29T00:54:58.326Z,6.27
2019-04-29T00:58:03.377Z,7.40
2019-04-29T01:01:12.843Z,6.37
2019-04-29T01:04:17.901Z,7.10
2019-04-29T01:07:22.998Z,7.13
2019-04-29T01:10:28.056Z,9.63
2019-04-29T01:13:33.152Z,10.27
2019-04-29T01:16:38.149Z,11.23
2019-04-29T01:19:43.145Z,10.90
2019-04-29T01:22:48.072Z,7.30
2019-04-29T01:25:56.799Z,6.87
2019-04-29T01:29:02.186Z,7.00
2019-04-29T01:32:07.862Z,7.00
2019-04-29T01:35:13.219Z,6.23
2019-04-29T01:38:18.298Z,8.90
2019-04-29T01:41:25.787Z,9.50
2019-04-29T01:44:32.666Z,9.10
2019-04-29T01:47:37.594Z,6.83
2019-04-29T01:50:42.565Z,8.57
2019-04-29T01:53:47.573Z,6.50
2019-04-29T01:56:52.490Z,9.70
2019-04-29T01:59:57.506Z,7.33
2019-04-29T02:03:02.638Z,6.97
2019-04-29T02:06:07.725Z,6.10
2019-04-29T02:09:19.209Z,7.10
2019-04-29T02:12:24.249Z,7.87
2019-04-29T02:15:29.243Z,6.90
2019-04-29T02:18:34.245Z,9.13
2019-04-29T02:21:40.951Z,6.93
2019-04-29T02:24:50.913Z,6.93
2019-04-29T02:27:55.917Z,7.50
2019-04-29T02:31:19.990Z,7.40
2019-04-29T02:34:25.004Z,8.00
2019-04-29T02:37:33.864Z,8.43
2019-04-29T02:40:46.053Z,6.73
2019-04-29T02:43:52.648Z,8.20
2019-04-29T02:46:57.639Z,6.47
2019-04-29T02:50:02.658Z,8.70
2019-04-29T02:53:07.765Z,8.53
2019-04-29T02:56:12.788Z,8.57
2019-04-29T02:59:22.989Z,6.53
2019-04-29T03:02:40.476Z,11.67
2019-04-29T03:05:49.036Z,8.10
2019-04-29T03:08:54.124Z,7.27
2019-04-29T03:12:01.816Z,7.83
2019-04-29T03:15:06.584Z,11.33
2019-04-29T03:18:11.754Z,7.53
2019-04-29T03:21:27.564Z,12.23
2019-04-29T03:24:32.581Z,8.40
2019-04-29T03:27:37.510Z,9.67
2019-04-29T03:30:42.507Z,8.93
2019-04-29T03:33:47.575Z,10.27
2019-04-29T03:36:52.658Z,10.63
2019-04-29T03:39:57.652Z,7.20
2019-04-29T03:43:02.721Z,9.50
2019-04-29T03:46:07.788Z,6.83
2019-04-29T03:49:12.865Z,8.20
2019-04-29T03:52:17.817Z,8.10
2019-04-29T03:55:39.063Z,7.77
2019-04-29T03:58:31.403Z,10.20
2019-04-29T04:01:41.573Z,10.40
2019-04-29T04:04:58.148Z,14.63
2019-04-29T04:08:08.775Z,13.43
2019-04-29T04:11:13.722Z,11.17
2019-04-29T04:14:18.642Z,12.57
2019-04-29T04:17:29.848Z,10.80
2019-04-29T04:20:34.872Z,7.57
2019-04-29T04:23:39.939Z,10.93
2019-04-29T04:26:45.010Z,8.70
2019-04-29T04:29:49.934Z,11.67
2019-04-29T04:32:54.954Z,12.70
2019-04-29T04:36:00.129Z,13.70
2019-04-29T04:39:06.213Z,8.60
2019-04-29T04:42:12.246Z,11.13
2019-04-29T04:45:17.375Z,12.67
2019-04-29T04:48:22.319Z,9.40
2019-04-29T04:51:27.250Z,10.43
2019-04-29T04:54:32.181Z,10.23
2019-04-29T04:57:37.249Z,10.17
2019-04-29T05:00:42.522Z,13.77
2019-04-29T05:03:47.513Z,10.63
2019-04-29T05:06:53.805Z,9.57
2019-04-29T05:09:58.735Z,10.63
2019-04-29T05:13:03.725Z,12.40
2019-04-29T05:16:08.721Z,9.73
2019-04-29T05:19:13.639Z,10.07
2019-04-29T05:22:18.906Z,9.10
2019-04-29T05:25:23.965Z,11.23
2019-04-29T05:28:28.924Z,11.10
2019-04-29T05:31:34.032Z,10.67
2019-04-29T05:34:41.815Z,9.37
2019-04-29T05:38:02.289Z,12.00
2019-04-29T05:41:07.539Z,9.90
2019-04-29T05:44:19.101Z,9.40
2019-04-29T05:47:47.802Z,11.03
2019-04-29T05:51:02.163Z,10.17
2019-04-29T05:54:07.978Z,10.23
2019-04-29T05:57:13.056Z,11.33
2019-04-29T06:00:23.390Z,14.23
2019-04-29T06:03:26.202Z,9.30
2019-04-29T06:06:31.169Z,11.53
2019-04-29T06:09:36.189Z,14.07
2019-04-29T06:12:44.259Z,10.30
2019-04-29T06:15:47.893Z,11.00
2019-04-29T06:18:59.392Z,11.03
2019-04-29T06:21:59.590Z,9.47
2019-04-29T06:25:04.729Z,9.10
2019-04-29T06:28:09.707Z,9.40
2019-04-29T06:31:14.710Z,12.80
2019-04-29T06:34:19.689Z,9.17
2019-04-29T06:37:24.617Z,9.97
2019-04-29T06:40:30.577Z,13.33
2019-04-29T06:43:36.320Z,12.20
2019-04-29T06:46:41.411Z,9.40
2019-04-29T06:49:46.545Z,11.60
2019-04-29T06:52:51.606Z,9.37
2019-04-29T06:55:56.644Z,9.83
2019-04-29T06:59:01.659Z,11.37
2019-04-29T07:02:09.373Z,10.83
2019-04-29T07:05:13.511Z,9.93
2019-04-29T07:08:24.221Z,10.00
2019-04-29T07:11:31.850Z,13.90
2019-04-29T07:14:38.458Z,11.80
2019-04-29T07:17:43.027Z,12.60
2019-04-29T07:20:48.151Z,12.30
2019-04-29T07:23:53.159Z,9.63
2019-04-29T07:27:02.720Z,10.23
2019-04-29T07:30:08.024Z,13.63
2019-04-29T07:33:12.924Z,10.27
2019-04-29T07:36:18.647Z,13.87
2019-04-29T07:39:26.697Z,12.57
2019-04-29T07:42:33.327Z,9.93
2019-04-29T07:46:03.904Z,12.47
2019-04-29T07:49:06.169Z,9.57
2019-04-29T07:52:14.560Z,11.13
2019-04-29T07:55:17.886Z,12.57
2019-04-29T07:58:26.901Z,9.13
2019-04-29T08:01:29.511Z,11.03
2019-04-29T08:04:34.517Z,10.53
2019-04-29T08:07:39.591Z,9.77
2019-04-29T08:10:55.631Z,12.53
2019-04-29T08:13:52.509Z,13.37
2019-04-29T08:16:57.526Z,14.80
2019-04-29T08:20:05.272Z,14.83
2019-04-29T08:23:09.393Z,10.03
2019-04-29T08:26:14.542Z,10.10
2019-04-29T08:29:19.549Z,10.43
2019-04-29T08:32:24.489Z,12.03
2019-04-29T08:35:32.677Z,11.90
2019-04-29T08:38:36.203Z,10.50
2019-04-29T08:41:41.240Z,10.40
2019-04-29T08:44:59.743Z,15.30
2019-04-29T08:48:05.977Z,15.33
2019-04-29T08:51:10.949Z,11.43
2019-04-29T08:54:19.669Z,14.13
2019-04-29T08:57:22.696Z,12.63
2019-04-29T09:00:27.782Z,18.43
2019-04-29T09:03:39.995Z,14.93
2019-04-29T09:06:39.426Z,10.70
2019-04-29T09:09:44.525Z,11.80
2019-04-29T09:12:49.559Z,10.40
2019-04-29T09:15:54.576Z,12.90
2019-04-29T09:18:59.593Z,14.53
2019-04-29T09:22:06.654Z,10.47
2019-04-29T09:25:21.396Z,11.30
2019-04-29T09:28:27.989Z,9.40
2019-04-29T09:31:30.728Z,12.60
2019-04-29T09:34:35.909Z,10.37
2019-04-29T09:37:40.909Z,11.27
2019-04-29T09:41:01.627Z,11.53
2019-04-29T09:44:17.046Z,11.10
2019-04-29T09:47:22.129Z,8.27
2019-04-29T09:50:28.589Z,9.70
2019-04-29T09:53:35.521Z,10.37
2019-04-29T09:56:40.542Z,9.43
2019-04-29T09:59:50.534Z,9.80
2019-04-29T10:03:02.977Z,9.40
2019-04-29T10:06:24.017Z,8.83
2019-04-29T10:09:28.961Z,9.80
2019-04-29T10:12:34.116Z,6.80
2019-04-29T10:16:02.135Z,6.77
2019-04-29T10:19:26.658Z,8.40
2019-04-29T10:22:31.614Z,8.23
2019-04-29T10:25:36.693Z,10.10
2019-04-29T10:28:52.382Z,10.97
2019-04-29T10:31:57.462Z,8.87
2019-04-29T10:35:03.766Z,9.37
2019-04-29T10:38:09.250Z,7.90
2019-04-29T10:41:41.721Z,8.70
2019-04-29T10:45:04.558Z,7.53
2019-04-29T10:48:18.234Z,6.67
2019-04-29T10:51:27.428Z,9.10
2019-04-29T10:54:31.691Z,8.73
2019-04-29T10:57:37.166Z,8.43
2019-04-29T11:01:30.503Z,10.93
2019-04-29T11:04:36.346Z,9.47
2019-04-29T11:07:42.792Z,7.70
2019-04-29T11:10:47.940Z,11.30
2019-04-29T11:13:52.950Z,8.53
2019-04-29T11:16:58.093Z,11.60
2019-04-29T11:20:03.258Z,8.10
2019-04-29T11:23:26.232Z,8.60
2019-04-29T11:26:48.313Z,8.97
2019-04-29T11:29:53.394Z,8.40
2019-04-29T11:33:08.806Z,9.27
2019-04-29T11:36:15.021Z,10.23
2019-04-29T11:39:20.115Z,9.30
2019-04-29T11:42:25.341Z,8.60
2019-04-29T11:45:33.721Z,10.53
2019-04-29T11:48:37.382Z,8.40
2019-04-29T11:52:07.831Z,8.23
2019-04-29T11:54:53.841Z,7.30
2019-04-29T11:58:03.737Z,11.37
2019-04-29T12:01:20.562Z,7.73
2019-04-29T12:04:33.533Z,10.60
2019-04-29T12:07:37.242Z,8.73
2019-04-29T12:10:48.450Z,10.07
2019-04-29T12:14:14.270Z,9.87
2019-04-29T12:17:27.586Z,9.60
2019-04-29T12:20:47.006Z,11.90
2019-04-29T12:23:53.234Z,12.97
2019-04-29T12:26:58.528Z,9.80
2019-04-29T12:30:06.138Z,11.47
2019-04-29T12:33:15.905Z,9.83
2019-04-29T12:36:21.493Z,9.67
2019-04-29T12:39:48.794Z,9.40
2019-04-29T12:43:11.319Z,8.47
2019-04-29T12:46:33.623Z,8.37
2019-04-29T12:49:38.534Z,9.80
2019-04-29T12:52:43.518Z,9.97
2019-04-29T12:55:53.404Z,7.97
2019-04-29T12:58:59.594Z,8.80
2019-04-29T13:02:24.509Z,9.10
2019-04-29T13:05:38.964Z,11.70
2019-04-29T13:08:47.003Z,9.50
2019-04-29T13:12:01.679Z,20.10
2019-04-29T13:15:14.003Z,15.60
2019-04-29T13:18:25.937Z,10.63
2019-04-29T13:21:31.030Z,10.80
2019-04-29T13:24:38.639Z,10.63
2019-04-29T13:27:42.790Z,13.00
2019-04-29T13:30:51.531Z,12.30
2019-04-29T13:33:56.257Z,12.77
2019-04-29T13:37:07.294Z,13.47
2019-04-29T13:40:08.888Z,12.23
2019-04-29T13:43:13.901Z,13.10
2019-04-29T13:46:38.051Z,15.57
2019-04-29T13:49:49.130Z,13.23
2019-04-29T13:52:53.374Z,13.90
2019-04-29T13:56:11.218Z,13.20
2019-04-29T13:59:12.294Z,13.10
2019-04-29T14:02:36.981Z,13.13
2019-04-29T14:05:42.181Z,13.47
2019-04-29T14:08:47.125Z,14.20
2019-04-29T14:12:01.885Z,13.13
2019-04-29T14:15:00.306Z,13.87
2019-04-29T14:18:06.800Z,18.03
2019-04-29T14:21:12.141Z,12.90
2019-04-29T14:24:17.158Z,11.80
2019-04-29T14:27:25.222Z,13.13
2019-04-29T14:30:38.396Z,12.80
2019-04-29T14:33:40.861Z,18.50
2019-04-29T14:36:45.870Z,13.77
2019-04-29T14:39:50.883Z,12.37
2019-04-29T14:43:26.281Z,15.40
2019-04-29T14:46:43.893Z,13.67
2019-04-29T14:49:55.025Z,14.57
2019-04-29T14:52:59.369Z,14.17
2019-04-29T14:56:04.469Z,14.23
2019-04-29T14:59:09.455Z,14.90
2019-04-29T15:02:19.146Z,16.10
2019-04-29T15:05:24.388Z,14.20
2019-04-29T15:08:31.986Z,14.87
2019-04-29T15:11:45.440Z,15.23
2019-04-29T15:14:58.923Z,13.10
2019-04-29T15:18:16.150Z,14.63
2019-04-29T15:21:43.694Z,16.60
2019-04-29T15:24:49.116Z,13.33
2019-04-29T15:27:54.065Z,15.30
2019-04-29T15:30:59.053Z,16.13
2019-04-29T15:34:08.945Z,13.70
2019-04-29T15:37:10.957Z,15.40
2019-04-29T15:40:16.267Z,14.50
2019-04-29T15:43:24.508Z,20.17
2019-04-29T15:46:29.889Z,13.93
2019-04-29T15:49:34.663Z,13.83
2019-04-29T15:52:39.741Z,13.63
2019-04-29T15:55:45.910Z,13.83
2019-04-29T15:58:50.886Z,18.47
2019-04-29T16:01:59.219Z,15.00
2019-04-29T16:05:14.441Z,14.60
2019-04-29T16:08:39.532Z,13.70
2019-04-29T16:12:04.321Z,19.63
2019-04-29T16:15:08.293Z,14.53
2019-04-29T16:18:14.820Z,15.13
2019-04-29T16:21:20.001Z,17.20
2019-04-29T16:24:27.008Z,14.73
2019-04-29T16:27:31.661Z,15.27
2019-04-29T16:30:36.912Z,16.73
2019-04-29T16:33:47.429Z,15.50
2019-04-29T16:36:50.040Z,14.27
2019-04-29T16:39:59.593Z,15.17
2019-04-29T16:43:10.233Z,15.13
2019-04-29T16:46:23.522Z,12.13
2019-04-29T16:49:25.205Z,14.07
2019-04-29T16:52:30.374Z,22.80
2019-04-29T16:55:35.719Z,17.03
2019-04-29T16:58:42.086Z,14.03
2019-04-29T17:01:47.217Z,12.00
2019-04-29T17:04:52.321Z,12.70
2019-04-29T17:07:57.442Z,11.40
2019-04-29T17:11:25.109Z,13.80
2019-04-29T17:14:30.111Z,12.03
2019-04-29T17:17:35.261Z,17.00
2019-04-29T17:20:40.952Z,10.97
2019-04-29T17:23:45.968Z,12.37
2019-04-29T17:26:59.067Z,12.73
2019-04-29T17:30:20.181Z,18.73
2019-04-29T17:33:41.374Z,18.27
2019-04-29T17:36:44.626Z,18.40
2019-04-29T17:39:49.669Z,18.03
2019-04-29T17:43:13.097Z,15.27
2019-04-29T17:46:32.506Z,35.83
2019-04-29T17:50:06.637Z,14.97
2019-04-29T17:53:29.988Z,15.90
2019-04-29T17:56:46.620Z,15.17
2019-04-29T18:00:09.266Z,12.97
2019-04-29T18:03:43.025Z,15.93
2019-04-29T18:07:08.367Z,14.97
2019-04-29T18:10:31.082Z,14.73
2019-04-29T18:13:36.298Z,14.37
2019-04-29T18:16:43.656Z,14.67
2019-04-29T18:20:13.807Z,14.50
2019-04-29T18:23:47.152Z,13.10
2019-04-29T18:26:57.109Z,13.93
2019-04-29T18:30:02.181Z,14.23
2019-04-29T18:33:07.184Z,14.47
2019-04-29T18:36:21.872Z,14.80
2019-04-29T18:39:25.007Z,14.00
2019-04-29T18:42:28.839Z,15.50
2019-04-29T18:45:36.795Z,14.93
2019-04-29T18:48:42.142Z,13.27
2019-04-29T18:51:47.255Z,15.57
2019-04-29T18:54:52.220Z,15.37
2019-04-29T18:57:58.486Z,13.93
2019-04-29T19:01:05.661Z,17.77
2019-04-29T19:04:41.877Z,14.73
2019-04-29T19:07:54.940Z,16.30
2019-04-29T19:10:53.957Z,15.23
2019-04-29T19:13:58.992Z,18.60
2019-04-29T19:17:04.876Z,15.27
2019-04-29T19:20:13.109Z,15.47
2019-04-29T19:23:22.285Z,16.77
2019-04-29T19:26:27.514Z,17.70
2019-04-29T19:29:31.117Z,15.60
2019-04-29T19:32:36.654Z,14.90
2019-04-29T19:35:41.890Z,16.53
2019-04-29T19:38:47.373Z,17.13
2019-04-29T19:41:52.560Z,17.07
2019-04-29T19:44:57.569Z,15.70
2019-04-29T19:48:16.046Z,18.33
2019-04-29T19:51:23.094Z,16.30
2019-04-29T19:54:28.657Z,16.67
2019-04-29T19:57:36.200Z,16.93
2019-04-29T20:00:41.289Z,16.97
2019-04-29T20:04:06.600Z,16.20
2019-04-29T20:07:13.186Z,18.07
2019-04-29T20:10:19.842Z,16.53
2019-04-29T20:13:31.703Z,16.97
2019-04-29T20:17:09.859Z,17.60
2019-04-29T20:20:15.510Z,17.43
2019-04-29T20:23:26.345Z,18.67
2019-04-29T20:26:29.607Z,17.53
2019-04-29T20:29:38.465Z,14.60
2019-04-29T20:32:41.081Z,17.67
2019-04-29T20:35:49.006Z,17.00
2019-04-29T20:38:53.021Z,16.93
2019-04-29T20:42:01.045Z,17.80
2019-04-29T20:45:06.282Z,18.73
2019-04-29T20:48:16.193Z,21.70
2019-04-29T20:51:18.467Z,18.33
2019-04-29T20:54:25.857Z,20.80
2019-04-29T20:57:31.218Z,20.57
2019-04-29T21:00:38.912Z,16.80
2019-04-29T21:03:46.139Z,19.57
2019-04-29T21:06:59.679Z,19.20
2019-04-29T21:09:59.914Z,18.87
2019-04-29T21:13:22.165Z,17.37
2019-04-29T21:16:31.089Z,18.87
2019-04-29T21:19:36.028Z,20.07
2019-04-29T21:22:41.082Z,20.83
2019-04-29T21:25:46.280Z,18.07
2019-04-29T21:28:51.437Z,17.77
2019-04-29T21:32:01.447Z,17.70
2019-04-29T21:35:18.529Z,18.97
2019-04-29T21:38:53.861Z,15.77
2019-04-29T21:42:12.724Z,15.97
2019-04-29T21:45:18.817Z,16.37
2019-04-29T21:48:33.044Z,17.67
2019-04-29T21:51:30.925Z,16.20
2019-04-29T21:54:35.936Z,16.27
2019-04-29T21:57:40.949Z,16.77
2019-04-29T22:00:46.312Z,17.10
2019-04-29T22:03:51.338Z,16.80
2019-04-29T22:06:59.778Z,17.33
2019-04-29T22:10:03.231Z,18.13
2019-04-29T22:13:08.640Z,19.50
2019-04-29T22:16:15.817Z,20.60
2019-04-29T22:19:26.149Z,18.03
2019-04-29T22:22:30.639Z,18.43
2019-04-29T22:25:36.675Z,18.00
2019-04-29T22:28:41.852Z,19.00
2019-04-29T22:31:46.847Z,21.67
2019-04-29T22:34:56.100Z,20.50
2019-04-29T22:37:58.389Z,18.37
2019-04-29T22:41:05.121Z,19.67
2019-04-29T22:44:15.152Z,19.70
2019-04-29T22:47:23.880Z,20.90
2019-04-29T22:50:24.193Z,22.03
2019-04-29T22:53:29.290Z,20.97
2019-04-29T22:56:36.098Z,21.67
2019-04-29T22:59:40.981Z,21.07
2019-04-29T23:02:46.084Z,22.13
2019-04-29T23:05:51.069Z,23.27
2019-04-29T23:08:56.244Z,23.03
2019-04-29T23:12:01.379Z,23.37
2019-04-29T23:15:06.609Z,24.17
2019-04-29T23:18:11.772Z,23.10
2019-04-29T23:21:36.829Z,22.83
2019-04-29T23:24:56.472Z,23.83
2019-04-29T23:28:01.385Z,25.10
2019-04-29T23:31:06.462Z,24.47
2019-04-29T23:34:11.462Z,24.13
2019-04-29T23:37:19.482Z,26.93
2019-04-29T23:40:23.234Z,28.47
2019-04-29T23:43:28.649Z,26.77
2019-04-29T23:46:34.180Z,26.90
2019-04-29T23:49:42.700Z,28.63
2019-04-29T23:52:47.947Z,29.07
2019-04-29T23:55:52.996Z,27.23
2019-04-29T23:59:05.623Z,29.33
